Terminal Aerodrome Forecast
Issued by NWS Shreveport, LA

Home | Current Version | Previous Version | Text Only | Print | Product List | Glossary On
Versions: 1 2 3 4 5 6 7 8 9 10 11 12 13 14
511
FTUS44 KSHV 032155 AAA
TAFMLU
TAF AMD
KMLU 032155Z 0322/0418 07012KT 4SM RA BR OVC007
     FM040300 06010KT 2SM -RA BR OVC004=

USA.gov is the U.S. government's official web portal to all federal, state and local government web resources and services.